Time;durP1;ratioP1;P1;durP2;ratioP2;P2;SDS_P1;SDS_P2;PMS_P1;PMS_P2;Temp;Humidity;BMP_temperature;BMP_pressure;BME280_temperature;BME280_humidity;BME280_pressure;Samples;Min_cycle;Max_cycle;Signal;HPM_P1;HPM_P2
2024/02/02 00:02:27;;;;;;;44.22;7.43;;;;;;;;;;6145957;23;20021;-61
2024/02/02 00:05:27;;;;;;;45.22;5.60;;;;;;;;;;6144111;23;20021;-61
2024/02/02 00:08:14;;;;;;;37.28;6.88;;;;;;;;;;6143828;23;20030;-61
2024/02/02 00:11:09;;;;;;;59.30;6.05;;;;;;;;;;6144512;23;20413;-61
2024/02/02 00:13:56;;;;;;;48.70;7.25;;;;;;;;;;6145802;23;20026;-61
2024/02/02 00:16:49;;;;;;;46.70;5.95;;;;;;;;;;6146359;23;20136;-61
2024/02/02 00:19:21;;;;;;;50.55;6.68;;;;;;;;;;6145026;23;20025;-61
2024/02/02 00:21:55;;;;;;;45.33;6.07;;;;;;;;;;6146258;23;20029;-61
2024/02/02 00:24:22;;;;;;;62.00;6.82;;;;;;;;;;6145788;23;20403;-61
2024/02/02 00:26:49;;;;;;;43.83;6.07;;;;;;;;;;6145564;23;20022;-62
2024/02/02 00:29:22;;;;;;;39.60;4.70;;;;;;;;;;6144172;23;20120;-66
2024/02/02 00:31:50;;;;;;;63.60;6.40;;;;;;;;;;6146931;23;20025;-57
2024/02/02 00:34:17;;;;;;;55.83;6.60;;;;;;;;;;6145782;23;20032;-57
2024/02/02 00:36:57;;;;;;;53.28;6.45;;;;;;;;;;6146076;23;20025;-57
2024/02/02 00:39:24;;;;;;;48.03;6.63;;;;;;;;;;6144365;23;20483;-56
2024/02/02 00:41:59;;;;;;;54.35;6.70;;;;;;;;;;6145136;23;20022;-56
2024/02/02 00:44:26;;;;;;;51.95;5.57;;;;;;;;;;6145407;23;20081;-57
2024/02/02 00:46:53;;;;;;;41.08;5.65;;;;;;;;;;6146450;23;20029;-64
2024/02/02 00:49:47;;;;;;;44.90;6.00;;;;;;;;;;6144074;23;20032;-64
2024/02/02 00:52:35;;;;;;;53.90;6.22;;;;;;;;;;6144328;23;20025;-63
2024/02/02 00:55:28;;;;;;;53.60;7.65;;;;;;;;;;6145007;23;20029;-62
2024/02/02 00:58:16;;;;;;;46.72;5.85;;;;;;;;;;6145791;23;20017;-55
2024/02/02 01:01:09;;;;;;;51.65;6.05;;;;;;;;;;6145730;23;20029;-52
2024/02/02 01:03:57;;;;;;;61.63;7.15;;;;;;;;;;6146023;23;20026;-50
2024/02/02 01:06:57;;;;;;;61.40;6.28;;;;;;;;;;6145313;23;20541;-55
2024/02/02 01:09:45;;;;;;;50.47;5.50;;;;;;;;;;6143882;23;20096;-49
2024/02/02 01:12:39;;;;;;;55.75;5.95;;;;;;;;;;6143415;23;20026;-55
2024/02/02 01:15:26;;;;;;;47.10;5.97;;;;;;;;;;6145413;23;20048;-61
2024/02/02 01:18:20;;;;;;;45.13;5.72;;;;;;;;;;6144649;23;20025;-59
2024/02/02 01:21:08;;;;;;;45.42;6.10;;;;;;;;;;6143460;23;20025;-58
2024/02/02 01:24:02;;;;;;;46.03;6.97;;;;;;;;;;6144234;23;20028;-61
2024/02/02 01:26:49;;;;;;;48.88;6.05;;;;;;;;;;6144966;23;20018;-54
2024/02/02 01:29:42;;;;;;;41.78;4.97;;;;;;;;;;6144826;23;20022;-67
2024/02/02 01:32:30;;;;;;;53.15;6.38;;;;;;;;;;6145834;23;20170;-68
2024/02/02 01:35:26;;;;;;;54.25;5.75;;;;;;;;;;6145888;23;20041;-66
2024/02/02 01:38:18;;;;;;;50.95;5.97;;;;;;;;;;6146135;23;20416;-67
2024/02/02 01:41:12;;;;;;;29.58;4.20;;;;;;;;;;6146515;23;20095;-67
2024/02/02 01:44:00;;;;;;;53.63;4.75;;;;;;;;;;6148215;23;20084;-67
2024/02/02 01:46:53;;;;;;;39.63;4.57;;;;;;;;;;6147020;23;20127;-66
2024/02/02 01:49:48;;;;;;;28.38;4.90;;;;;;;;;;6144853;23;20021;-67
2024/02/02 01:52:35;;;;;;;40.95;5.78;;;;;;;;;;6144831;23;20487;-59
2024/02/02 01:55:29;;;;;;;36.95;5.00;;;;;;;;;;6147366;23;20632;-60
2024/02/02 01:58:16;;;;;;;37.38;3.85;;;;;;;;;;6146660;23;20055;-67
2024/02/02 02:01:09;;;;;;;46.00;5.05;;;;;;;;;;6146745;23;20076;-66
2024/02/02 02:04:04;;;;;;;33.28;3.67;;;;;;;;;;6146847;23;20080;-67
2024/02/02 02:06:58;;;;;;;34.97;4.43;;;;;;;;;;6144422;23;20100;-67
2024/02/02 02:09:45;;;;;;;27.75;4.82;;;;;;;;;;6143740;23;20030;-66
2024/02/02 02:12:38;;;;;;;29.10;3.75;;;;;;;;;;6143550;23;20025;-55
2024/02/02 02:15:26;;;;;;;45.03;5.47;;;;;;;;;;6144561;23;20084;-53
2024/02/02 02:18:19;;;;;;;36.30;4.57;;;;;;;;;;6142126;23;20029;-55
2024/02/02 02:21:25;;;;;;;30.25;3.78;;;;;;;;;;6142332;23;20029;-61
2024/02/02 02:24:18;;;;;;;28.08;3.60;;;;;;;;;;6144339;23;20018;-60
2024/02/02 02:27:06;;;;;;;28.40;3.08;;;;;;;;;;6143782;23;20028;-60
2024/02/02 02:30:00;;;;;;;31.67;4.00;;;;;;;;;;6144399;23;20360;-60
2024/02/02 02:32:53;;;;;;;36.42;3.78;;;;;;;;;;6144895;23;20100;-61
2024/02/02 02:35:41;;;;;;;23.95;3.45;;;;;;;;;;6143410;23;20574;-60
2024/02/02 02:38:35;;;;;;;24.85;3.70;;;;;;;;;;6143483;23;20049;-61
2024/02/02 02:41:22;;;;;;;25.60;3.55;;;;;;;;;;6143158;23;20021;-61
2024/02/02 02:44:16;;;;;;;25.40;3.08;;;;;;;;;;6145211;23;20018;-61
2024/02/02 02:47:03;;;;;;;30.25;4.25;;;;;;;;;;6145682;23;20100;-60
2024/02/02 02:49:57;;;;;;;31.08;3.38;;;;;;;;;;6143866;23;20518;-60
2024/02/02 02:52:44;;;;;;;26.88;3.63;;;;;;;;;;6143529;23;20890;-58
2024/02/02 02:55:37;;;;;;;23.05;3.42;;;;;;;;;;6145442;23;20186;-57
2024/02/02 02:58:25;;;;;;;28.70;3.45;;;;;;;;;;6146143;23;20030;-58
2024/02/02 03:01:18;;;;;;;21.40;3.80;;;;;;;;;;6147151;23;20025;-58
2024/02/02 17:12:06;;;;;;;52.57;8.13;;;;;;;;;;5731735;23;9678094;-52
2024/02/02 17:15:01;;;;;;;66.60;7.20;;;;;;;;;;6144673;23;20052;-53
2024/02/02 17:17:55;;;;;;;49.95;6.95;;;;;;;;;;6143209;23;20415;-53
2024/02/02 17:20:42;;;;;;;51.22;7.03;;;;;;;;;;6137334;23;20138;-54
2024/02/02 17:23:36;;;;;;;48.47;6.78;;;;;;;;;;6142167;23;20053;-65
2024/02/02 17:26:30;;;;;;;66.18;7.32;;;;;;;;;;6142045;23;20029;-53
2024/02/02 17:29:18;;;;;;;52.33;7.07;;;;;;;;;;6142386;23;20409;-54
2024/02/02 17:32:11;;;;;;;48.03;6.20;;;;;;;;;;6141006;23;20025;-54
2024/02/02 17:34:58;;;;;;;64.10;7.75;;;;;;;;;;6143434;23;20042;-55
2024/02/02 17:38:06;;;;;;;57.13;6.80;;;;;;;;;;6139511;23;20508;-55
2024/02/02 17:40:53;;;;;;;56.00;6.93;;;;;;;;;;6139304;23;20025;-54
2024/02/02 17:43:48;;;;;;;55.78;7.70;;;;;;;;;;6141286;23;20100;-59
2024/02/02 17:46:35;;;;;;;63.30;9.02;;;;;;;;;;6142072;23;20022;-60
2024/02/02 17:49:29;;;;;;;62.13;8.10;;;;;;;;;;6141280;23;20092;-59
2024/02/02 17:52:22;;;;;;;70.40;7.90;;;;;;;;;;6139294;23;20128;-59
2024/02/02 17:55:16;;;;;;;50.13;7.45;;;;;;;;;;6141237;23;20538;-58
2024/02/02 17:58:03;;;;;;;52.42;7.22;;;;;;;;;;6142951;23;20026;-53
2024/02/02 18:00:57;;;;;;;62.22;8.32;;;;;;;;;;6142464;23;20057;-55
2024/02/02 18:03:44;;;;;;;50.63;6.28;;;;;;;;;;6143002;23;20100;-55
2024/02/02 18:06:38;;;;;;;37.47;5.30;;;;;;;;;;6140985;23;20025;-54
2024/02/02 18:09:25;;;;;;;36.17;4.88;;;;;;;;;;6141877;23;20037;-60
2024/02/02 18:12:25;;;;;;;37.33;5.68;;;;;;;;;;6141501;23;20025;-59
2024/02/02 18:15:12;;;;;;;47.88;6.20;;;;;;;;;;6141108;23;20598;-60
2024/02/02 18:18:07;;;;;;;38.47;6.53;;;;;;;;;;6137866;23;20030;-59
2024/02/02 18:21:01;;;;;;;54.28;6.43;;;;;;;;;;6138119;23;20076;-60
2024/02/02 18:23:48;;;;;;;45.85;5.95;;;;;;;;;;6138104;23;20021;-60
2024/02/02 18:26:42;;;;;;;35.67;6.05;;;;;;;;;;6140197;23;20461;-64
2024/02/02 18:29:29;;;;;;;49.65;6.32;;;;;;;;;;6138661;23;20064;-62
2024/02/02 18:32:23;;;;;;;40.03;6.05;;;;;;;;;;6140367;23;20028;-51
2024/02/02 18:35:11;;;;;;;49.35;6.38;;;;;;;;;;6140200;23;20056;-52
2024/02/02 18:38:04;;;;;;;44.85;7.82;;;;;;;;;;6142270;23;20025;-51
2024/02/02 18:40:51;;;;;;;52.95;6.68;;;;;;;;;;6141124;23;20341;-53
2024/02/02 18:43:45;;;;;;;36.20;5.00;;;;;;;;;;6140658;23;20088;-52
2024/02/02 18:46:32;;;;;;;38.90;6.05;;;;;;;;;;6142702;23;20553;-56
2024/02/02 18:49:26;;;;;;;42.53;5.68;;;;;;;;;;6141333;23;20026;-53
2024/02/02 18:52:13;;;;;;;41.08;6.35;;;;;;;;;;6140538;23;20061;-55
2024/02/02 18:55:07;;;;;;;36.03;6.82;;;;;;;;;;6140777;23;20440;-59
2024/02/02 18:58:01;;;;;;;40.90;5.20;;;;;;;;;;6141329;23;20088;-55
2024/02/02 19:00:58;;;;;;;44.20;6.43;;;;;;;;;;6139804;23;20022;-53
2024/02/02 19:03:52;;;;;;;45.60;7.53;;;;;;;;;;6141743;23;20468;-52
2024/02/02 19:06:40;;;;;;;46.38;7.63;;;;;;;;;;6140369;23;20449;-52
2024/02/02 19:09:34;;;;;;;56.75;7.15;;;;;;;;;;6136570;23;20044;-52
2024/02/02 19:12:27;;;;;;;63.13;8.13;;;;;;;;;;6140536;23;20055;-51
2024/02/02 19:15:22;;;;;;;52.13;6.72;;;;;;;;;;6138942;23;20073;-64
2024/02/02 19:18:09;;;;;;;51.67;7.95;;;;;;;;;;6140047;23;20403;-54
2024/02/02 19:21:03;;;;;;;60.08;7.63;;;;;;;;;;6135385;23;20060;-54
2024/02/02 19:23:50;;;;;;;58.47;8.32;;;;;;;;;;6141168;23;20100;-52
2024/02/02 19:26:46;;;;;;;55.55;7.70;;;;;;;;;;6138310;23;20410;-53
2024/02/02 19:29:32;;;;;;;45.00;6.93;;;;;;;;;;6141558;23;20021;-54
2024/02/02 19:32:26;;;;;;;69.88;7.68;;;;;;;;;;6140954;23;20111;-56
2024/02/02 19:35:13;;;;;;;63.80;8.45;;;;;;;;;;6139285;23;20025;-62
2024/02/02 19:38:07;;;;;;;54.80;7.13;;;;;;;;;;6143846;23;20025;-62
2024/02/02 19:40:54;;;;;;;77.20;8.70;;;;;;;;;;6143461;23;20028;-62
2024/02/02 19:43:48;;;;;;;51.97;5.97;;;;;;;;;;6142259;23;20032;-62
2024/02/02 19:46:35;;;;;;;66.13;8.95;;;;;;;;;;6141872;23;20022;-62
2024/02/02 19:49:31;;;;;;;68.68;7.90;;;;;;;;;;6141825;23;20061;-61
2024/02/02 19:52:23;;;;;;;45.63;7.18;;;;;;;;;;6142447;23;20044;-61
2024/02/02 19:55:17;;;;;;;55.05;7.53;;;;;;;;;;6142833;23;20345;-62
2024/02/02 19:58:04;;;;;;;63.25;8.20;;;;;;;;;;6140478;23;20030;-61
2024/02/02 20:00:58;;;;;;;56.33;7.35;;;;;;;;;;6141727;23;20333;-64
2024/02/02 20:03:52;;;;;;;65.30;8.45;;;;;;;;;;6140571;23;20053;-61
2024/02/02 20:06:47;;;;;;;59.30;7.65;;;;;;;;;;6139341;23;20060;-62
2024/02/02 20:09:34;;;;;;;71.82;8.20;;;;;;;;;;6140642;23;20068;-62
2024/02/02 20:12:37;;;;;;;64.13;7.70;;;;;;;;;;6139306;23;20025;-61
2024/02/02 20:15:27;;;;;;;51.65;8.00;;;;;;;;;;6141814;23;20541;-61
2024/02/02 20:18:19;;;;;;;60.15;7.63;;;;;;;;;;6138747;23;20044;-61
2024/02/02 20:21:13;;;;;;;51.75;8.60;;;;;;;;;;6139338;23;20423;-54
2024/02/02 20:24:01;;;;;;;60.55;6.03;;;;;;;;;;6140025;23;20025;-55
2024/02/02 20:26:55;;;;;;;57.63;8.65;;;;;;;;;;6138392;23;20029;-52
2024/02/02 20:29:42;;;;;;;46.25;7.35;;;;;;;;;;6139145;23;20033;-64
2024/02/02 20:32:36;;;;;;;45.17;6.10;;;;;;;;;;6139415;23;20033;-55
2024/02/02 20:35:23;;;;;;;35.33;6.28;;;;;;;;;;6142001;23;20032;-51
2024/02/02 20:38:17;;;;;;;40.63;5.93;;;;;;;;;;6144031;23;20026;-54
2024/02/02 20:41:05;;;;;;;43.30;6.88;;;;;;;;;;6144669;23;20030;-50
2024/02/02 20:43:59;;;;;;;41.10;6.07;;;;;;;;;;6143766;23;20025;-54
2024/02/02 20:46:46;;;;;;;43.63;7.70;;;;;;;;;;6143409;23;20116;-51
2024/02/02 20:49:43;;;;;;;47.38;5.70;;;;;;;;;;6143194;23;20025;-61
2024/02/02 20:52:27;;;;;;;41.10;6.50;;;;;;;;;;6142826;23;20030;-59
2024/02/02 20:55:21;;;;;;;31.45;4.75;;;;;;;;;;6144436;23;20029;-59
2024/02/02 20:58:15;;;;;;;48.28;6.95;;;;;;;;;;6143077;23;20029;-58
2024/02/02 21:01:02;;;;;;;45.30;6.47;;;;;;;;;;6142145;23;20025;-66
2024/02/02 21:03:56;;;;;;;41.83;7.05;;;;;;;;;;6142647;23;20108;-65
2024/02/02 21:06:43;;;;;;;50.92;7.18;;;;;;;;;;6141583;23;20021;-65
2024/02/02 21:09:37;;;;;;;46.22;5.93;;;;;;;;;;6141872;23;20026;-65
2024/02/02 21:12:31;;;;;;;49.88;7.85;;;;;;;;;;6141527;23;20068;-66
2024/02/02 21:15:32;;;;;;;37.83;6.05;;;;;;;;;;6141987;23;20032;-56
2024/02/02 21:18:23;;;;;;;50.70;7.60;;;;;;;;;;6141280;23;20443;-59
2024/02/02 21:21:09;;;;;;;54.45;6.95;;;;;;;;;;6143043;23;20021;-60
2024/02/02 21:24:03;;;;;;;55.35;7.07;;;;;;;;;;6143235;23;20108;-59
2024/02/02 21:26:50;;;;;;;48.58;7.80;;;;;;;;;;6141181;23;20259;-59
2024/02/02 21:29:44;;;;;;;52.00;7.00;;;;;;;;;;6141754;23;20041;-51
2024/02/02 21:32:31;;;;;;;65.95;8.02;;;;;;;;;;6142954;23;20028;-50
2024/02/02 21:35:25;;;;;;;55.72;6.60;;;;;;;;;;6142332;23;20754;-52
2024/02/02 21:38:19;;;;;;;45.03;6.15;;;;;;;;;;6141848;23;20022;-51
2024/02/02 21:41:06;;;;;;;41.05;6.85;;;;;;;;;;6143346;23;20084;-55
2024/02/02 21:44:00;;;;;;;48.67;6.28;;;;;;;;;;6142665;23;20076;-60
2024/02/02 21:46:50;;;;;;;54.42;6.88;;;;;;;;;;6141757;23;20033;-60
2024/02/02 21:49:44;;;;;;;41.63;7.18;;;;;;;;;;6142291;23;20045;-60
2024/02/02 21:52:39;;;;;;;52.15;7.00;;;;;;;;;;6139635;23;20021;-60
2024/02/02 21:55:13;;;;;;;43.08;6.35;;;;;;;;;;6141310;23;20035;-63
2024/02/02 21:57:47;;;;;;;41.05;5.78;;;;;;;;;;6144376;23;20033;-60
2024/02/02 22:00:15;;;;;;;51.53;7.28;;;;;;;;;;6144456;23;20084;-60
2024/02/02 22:02:42;;;;;;;45.95;6.25;;;;;;;;;;6144304;23;20032;-60
2024/02/02 22:05:16;;;;;;;54.80;8.38;;;;;;;;;;6146040;23;20478;-60
2024/02/02 22:07:43;;;;;;;42.63;5.78;;;;;;;;;;6146263;23;20029;-60
2024/02/02 22:10:23;;;;;;;47.80;5.78;;;;;;;;;;6145584;23;20025;-60
2024/02/02 22:12:57;;;;;;;58.03;7.10;;;;;;;;;;6145371;23;20033;-62
2024/02/02 22:15:31;;;;;;;50.55;6.32;;;;;;;;;;6145407;23;20025;-62
2024/02/02 22:18:18;;;;;;;47.10;6.25;;;;;;;;;;6143777;23;20073;-62
2024/02/02 22:21:12;;;;;;;43.03;5.60;;;;;;;;;;6145245;23;20084;-62
2024/02/02 22:23:59;;;;;;;49.35;5.82;;;;;;;;;;6145210;23;20053;-66
2024/02/02 22:26:53;;;;;;;42.20;5.82;;;;;;;;;;6144319;23;20025;-57
2024/02/02 22:29:43;;;;;;;43.22;5.70;;;;;;;;;;6146222;23;20476;-52
2024/02/02 22:32:37;;;;;;;38.53;5.25;;;;;;;;;;6144199;23;20383;-50
2024/02/02 22:35:25;;;;;;;39.40;5.75;;;;;;;;;;6145592;23;20022;-52
2024/02/02 22:38:18;;;;;;;34.70;4.78;;;;;;;;;;6145805;23;20025;-54
2024/02/02 22:41:05;;;;;;;32.20;4.80;;;;;;;;;;6145095;23;20057;-66
2024/02/02 22:44:01;;;;;;;35.70;4.93;;;;;;;;;;6146015;23;20093;-66
2024/02/02 22:46:48;;;;;;;31.90;5.75;;;;;;;;;;6144082;23;20056;-65
2024/02/02 22:49:43;;;;;;;35.53;5.40;;;;;;;;;;6145740;23;20044;-65
2024/02/02 22:52:30;;;;;;;39.13;5.97;;;;;;;;;;6144102;23;20025;-60
2024/02/02 22:55:24;;;;;;;36.53;5.07;;;;;;;;;;6145051;23;20026;-60
2024/02/02 22:58:18;;;;;;;34.95;4.38;;;;;;;;;;6142838;23;20029;-58
2024/02/02 23:01:12;;;;;;;39.50;4.63;;;;;;;;;;6146428;23;20084;-60
2024/02/02 23:03:59;;;;;;;31.77;5.25;;;;;;;;;;6144871;23;20049;-61
2024/02/02 23:06:53;;;;;;;33.08;4.43;;;;;;;;;;6144643;23;20637;-59
2024/02/02 23:09:40;;;;;;;38.90;5.70;;;;;;;;;;6145164;23;20049;-61
2024/02/02 23:12:40;;;;;;;37.60;6.53;;;;;;;;;;6144855;23;20404;-62
2024/02/02 23:15:28;;;;;;;35.03;5.15;;;;;;;;;;6145530;23;20029;-62
2024/02/02 23:18:23;;;;;;;30.25;4.78;;;;;;;;;;6143785;23;20032;-61
2024/02/02 23:21:11;;;;;;;32.97;4.88;;;;;;;;;;6144644;23;20357;-59
2024/02/02 23:24:03;;;;;;;29.15;4.78;;;;;;;;;;6145194;23;20096;-63
2024/02/02 23:26:50;;;;;;;37.63;4.95;;;;;;;;;;6145863;23;20029;-63
2024/02/02 23:29:44;;;;;;;47.28;5.05;;;;;;;;;;6146491;23;20040;-64
2024/02/02 23:32:31;;;;;;;44.60;6.25;;;;;;;;;;6145887;23;20025;-64
2024/02/02 23:35:25;;;;;;;29.25;4.70;;;;;;;;;;6147016;23;20408;-64
2024/02/02 23:38:12;;;;;;;41.33;5.05;;;;;;;;;;6145692;23;20550;-59
2024/02/02 23:41:06;;;;;;;39.72;5.10;;;;;;;;;;6147728;23;20599;-59
2024/02/02 23:43:54;;;;;;;39.92;5.72;;;;;;;;;;6145911;23;20096;-59
2024/02/02 23:46:47;;;;;;;40.42;5.32;;;;;;;;;;6145459;23;20026;-58
2024/02/02 23:49:34;;;;;;;46.65;6.35;;;;;;;;;;6146432;23;20080;-63
2024/02/02 23:52:29;;;;;;;44.00;6.13;;;;;;;;;;6144852;23;20033;-52
2024/02/02 23:55:22;;;;;;;33.83;4.72;;;;;;;;;;6145507;23;20084;-52
2024/02/02 23:58:09;;;;;;;43.67;5.43;;;;;;;;;;6143670;23;20022;-54
